sensor_id;sensor_type;location;lat;lon;timestamp;pressure;altitude;pressure_sealevel;temperature;humidity
20105;BME280;10212;42.714;23.310;2022-08-21T02:36:59;94700.22;;;16.33;100.00
20105;BME280;10212;42.714;23.310;2022-08-21T02:42:00;94698.63;;;16.32;100.00
20105;BME280;10212;42.714;23.310;2022-08-21T02:47:00;94698.03;;;16.25;100.00
20105;BME280;10212;42.714;23.310;2022-08-21T02:52:01;94703.34;;;16.30;100.00
20105;BME280;10212;42.714;23.310;2022-08-21T02:57:01;94696.47;;;16.29;100.00
20105;BME280;10212;42.714;23.310;2022-08-21T03:02:02;94687.84;;;16.34;100.00
20105;BME280;10212;42.714;23.310;2022-08-21T03:07:03;94702.69;;;16.45;100.00
20105;BME280;10212;42.714;23.310;2022-08-21T03:12:04;94703.47;;;16.46;100.00
20105;BME280;10212;42.714;23.310;2022-08-21T03:17:05;94708.25;;;16.49;100.00
20105;BME280;10212;42.714;23.310;2022-08-21T03:22:05;94694.63;;;16.57;100.00
20105;BME280;10212;42.714;23.310;2022-08-21T03:27:06;94703.06;;;16.59;100.00
20105;BME280;10212;42.714;23.310;2022-08-21T03:32:06;94710.22;;;16.64;100.00
20105;BME280;10212;42.714;23.310;2022-08-21T03:37:09;94703.00;;;16.54;100.00
20105;BME280;10212;42.714;23.310;2022-08-21T03:42:11;94696.72;;;16.55;100.00
20105;BME280;10212;42.714;23.310;2022-08-21T03:47:12;94695.63;;;16.51;100.00
20105;BME280;10212;42.714;23.310;2022-08-21T03:52:13;94694.56;;;16.52;100.00
20105;BME280;10212;42.714;23.310;2022-08-21T03:57:13;94709.34;;;16.53;100.00
20105;BME280;10212;42.714;23.310;2022-08-21T04:02:16;94715.56;;;16.47;100.00
20105;BME280;10212;42.714;23.310;2022-08-21T04:07:19;94721.34;;;16.44;100.00
20105;BME280;10212;42.714;23.310;2022-08-21T04:12:20;94724.41;;;16.63;100.00
20105;BME280;10212;42.714;23.310;2022-08-21T04:17:21;94722.84;;;16.62;100.00
20105;BME280;10212;42.714;23.310;2022-08-21T04:22:21;94714.84;;;16.51;100.00
20105;BME280;10212;42.714;23.310;2022-08-21T04:27:22;94710.88;;;16.49;100.00
20105;BME280;10212;42.714;23.310;2022-08-21T04:32:24;94704.06;;;16.53;100.00
20105;BME280;10212;42.714;23.310;2022-08-21T04:37:25;94704.16;;;16.63;100.00
20105;BME280;10212;42.714;23.310;2022-08-21T04:42:27;94717.56;;;16.62;100.00
20105;BME280;10212;42.714;23.310;2022-08-21T04:47:28;94707.59;;;16.64;100.00
20105;BME280;10212;42.714;23.310;2022-08-21T04:52:29;94709.31;;;16.86;100.00
20105;BME280;10212;42.714;23.310;2022-08-21T04:57:29;94711.47;;;16.89;100.00
20105;BME280;10212;42.714;23.310;2022-08-21T05:02:30;94703.56;;;16.89;100.00
20105;BME280;10212;42.714;23.310;2022-08-21T05:07:33;94704.56;;;17.16;100.00
20105;BME280;10212;42.714;23.310;2022-08-21T05:12:34;94707.72;;;17.18;100.00
20105;BME280;10212;42.714;23.310;2022-08-21T05:17:36;94720.78;;;17.07;100.00
20105;BME280;10212;42.714;23.310;2022-08-21T05:22:36;94708.66;;;17.01;100.00
20105;BME280;10212;42.714;23.310;2022-08-21T05:27:38;94710.91;;;17.20;100.00
20105;BME280;10212;42.714;23.310;2022-08-21T05:32:39;94704.69;;;17.37;100.00
20105;BME280;10212;42.714;23.310;2022-08-21T05:37:39;94711.09;;;17.56;100.00
20105;BME280;10212;42.714;23.310;2022-08-21T05:42:40;94703.66;;;17.43;100.00
20105;BME280;10212;42.714;23.310;2022-08-21T05:47:40;94701.09;;;17.64;100.00
20105;BME280;10212;42.714;23.310;2022-08-21T05:52:41;94694.00;;;17.69;100.00
20105;BME280;10212;42.714;23.310;2022-08-21T05:57:42;94694.03;;;17.75;100.00
20105;BME280;10212;42.714;23.310;2022-08-21T06:02:42;94695.13;;;17.84;100.00
20105;BME280;10212;42.714;23.310;2022-08-21T06:07:43;94706.41;;;17.74;100.00
20105;BME280;10212;42.714;23.310;2022-08-21T06:12:44;94696.97;;;17.83;100.00
20105;BME280;10212;42.714;23.310;2022-08-21T06:17:44;94696.16;;;17.83;100.00
20105;BME280;10212;42.714;23.310;2022-08-21T06:22:45;94700.03;;;18.29;100.00
20105;BME280;10212;42.714;23.310;2022-08-21T06:27:46;94694.47;;;18.20;100.00
20105;BME280;10212;42.714;23.310;2022-08-21T06:32:47;94695.50;;;18.24;100.00
20105;BME280;10212;42.714;23.310;2022-08-21T06:37:47;94695.00;;;18.38;99.68
20105;BME280;10212;42.714;23.310;2022-08-21T06:42:48;94697.69;;;18.48;99.72
20105;BME280;10212;42.714;23.310;2022-08-21T06:47:49;94699.25;;;18.44;98.65
20105;BME280;10212;42.714;23.310;2022-08-21T06:53:00;94704.53;;;18.49;97.32
20105;BME280;10212;42.714;23.310;2022-08-21T06:58:01;94702.97;;;18.59;98.06
20105;BME280;10212;42.714;23.310;2022-08-21T07:03:03;94704.00;;;18.63;96.29
20105;BME280;10212;42.714;23.310;2022-08-21T07:08:04;94720.38;;;18.80;94.45
20105;BME280;10212;42.714;23.310;2022-08-21T07:13:04;94708.75;;;18.92;93.18
20105;BME280;10212;42.714;23.310;2022-08-21T07:18:05;94702.41;;;18.98;93.09
20105;BME280;10212;42.714;23.310;2022-08-21T07:23:13;94699.50;;;18.95;91.00
20105;BME280;10212;42.714;23.310;2022-08-21T07:28:18;94701.38;;;18.84;91.53
20105;BME280;10212;42.714;23.310;2022-08-21T07:33:21;94695.31;;;18.83;92.20
20105;BME280;10212;42.714;23.310;2022-08-21T07:38:22;94691.59;;;18.89;90.17
20105;BME280;10212;42.714;23.310;2022-08-21T07:43:25;94686.28;;;18.95;90.06
20105;BME280;10212;42.714;23.310;2022-08-21T07:48:27;94676.78;;;19.09;88.80
20105;BME280;10212;42.714;23.310;2022-08-21T07:53:28;94672.00;;;19.27;88.40
20105;BME280;10212;42.714;23.310;2022-08-21T07:58:28;94671.53;;;19.86;87.62
20105;BME280;10212;42.714;23.310;2022-08-21T08:03:29;94670.34;;;20.13;85.28
20105;BME280;10212;42.714;23.310;2022-08-21T08:08:30;94672.50;;;20.00;85.26
20105;BME280;10212;42.714;23.310;2022-08-21T08:13:31;94671.44;;;20.07;84.94
20105;BME280;10212;42.714;23.310;2022-08-21T08:18:34;94670.34;;;20.13;84.33
20105;BME280;10212;42.714;23.310;2022-08-21T08:23:35;94665.94;;;19.93;86.91
20105;BME280;10212;42.714;23.310;2022-08-21T08:28:35;94664.97;;;20.29;84.85
20105;BME280;10212;42.714;23.310;2022-08-21T08:33:36;94662.53;;;20.72;83.61
20105;BME280;10212;42.714;23.310;2022-08-21T08:38:37;94663.53;;;20.77;81.67
20105;BME280;10212;42.714;23.310;2022-08-21T08:43:37;94668.72;;;20.92;81.45
20105;BME280;10212;42.714;23.310;2022-08-21T08:53:52;94669.38;;;21.58;77.95
20105;BME280;10212;42.714;23.310;2022-08-21T08:59:02;94661.97;;;21.79;76.59
20105;BME280;10212;42.714;23.310;2022-08-21T09:04:09;94661.97;;;21.54;76.95
20105;BME280;10212;42.714;23.310;2022-08-21T09:09:31;94654.19;;;21.39;75.77
20105;BME280;10212;42.714;23.310;2022-08-21T09:14:54;94639.66;;;21.36;77.13
20105;BME280;10212;42.714;23.310;2022-08-21T09:25:26;94628.31;;;21.74;75.67
20105;BME280;10212;42.714;23.310;2022-08-21T09:30:30;94617.66;;;21.79;74.37
20105;BME280;10212;42.714;23.310;2022-08-21T09:35:33;94618.81;;;22.12;72.88
20105;BME280;10212;42.714;23.310;2022-08-21T09:40:40;94619.72;;;22.40;71.57
20105;BME280;10212;42.714;23.310;2022-08-21T09:45:44;94610.16;;;22.39;72.58
20105;BME280;10212;42.714;23.310;2022-08-21T09:50:45;94614.16;;;22.56;70.60
20105;BME280;10212;42.714;23.310;2022-08-21T09:55:54;94608.25;;;22.59;70.67
20105;BME280;10212;42.714;23.310;2022-08-21T10:01:21;94601.25;;;22.97;69.82
20105;BME280;10212;42.714;23.310;2022-08-21T10:06:26;94596.34;;;23.18;68.13
20105;BME280;10212;42.714;23.310;2022-08-21T10:11:30;94593.38;;;23.20;69.01
20105;BME280;10212;42.714;23.310;2022-08-21T10:17:01;94583.75;;;23.24;69.62
20105;BME280;10212;42.714;23.310;2022-08-21T10:22:38;94583.34;;;23.03;69.85
20105;BME280;10212;42.714;23.310;2022-08-21T10:49:45;94569.66;;;23.89;66.37
20105;BME280;10212;42.714;23.310;2022-08-21T11:00:11;94541.91;;;24.27;64.85
20105;BME280;10212;42.714;23.310;2022-08-21T11:05:25;94537.97;;;24.24;64.15
20105;BME280;10212;42.714;23.310;2022-08-21T11:10:55;94525.75;;;24.00;64.03
20105;BME280;10212;42.714;23.310;2022-08-21T11:16:05;94517.69;;;24.37;63.09
20105;BME280;10212;42.714;23.310;2022-08-21T11:26:35;94515.97;;;24.41;63.61
20105;BME280;10212;42.714;23.310;2022-08-21T11:31:56;94512.44;;;24.55;63.83
20105;BME280;10212;42.714;23.310;2022-08-21T11:37:13;94503.69;;;24.31;63.54
20105;BME280;10212;42.714;23.310;2022-08-21T11:47:49;94505.31;;;24.41;61.62
20105;BME280;10212;42.714;23.310;2022-08-21T11:53:00;94504.41;;;24.87;60.42
20105;BME280;10212;42.714;23.310;2022-08-21T11:58:18;94498.66;;;25.02;59.68
20105;BME280;10212;42.714;23.310;2022-08-21T12:03:27;94501.97;;;24.99;58.17
20105;BME280;10212;42.714;23.310;2022-08-21T12:08:32;94496.41;;;24.87;59.47
20105;BME280;10212;42.714;23.310;2022-08-21T12:13:37;94478.97;;;24.80;59.88
20105;BME280;10212;42.714;23.310;2022-08-21T12:18:40;94484.63;;;24.88;58.66
20105;BME280;10212;42.714;23.310;2022-08-21T12:29:11;94484.09;;;24.68;58.06
20105;BME280;10212;42.714;23.310;2022-08-21T12:34:14;94490.09;;;24.74;58.18
20105;BME280;10212;42.714;23.310;2022-08-21T12:39:22;94497.75;;;24.75;59.22
20105;BME280;10212;42.714;23.310;2022-08-21T12:44:41;94488.84;;;24.80;58.03
20105;BME280;10212;42.714;23.310;2022-08-21T12:50:12;94484.13;;;24.77;58.31
20105;BME280;10212;42.714;23.310;2022-08-21T12:55:13;94474.69;;;24.62;59.68
20105;BME280;10212;42.714;23.310;2022-08-21T13:00:22;94491.72;;;24.52;59.57
20105;BME280;10212;42.714;23.310;2022-08-21T13:05:37;94491.34;;;24.36;60.01
20105;BME280;10212;42.714;23.310;2022-08-21T13:10:42;94481.28;;;24.32;60.70
20105;BME280;10212;42.714;23.310;2022-08-21T13:15:43;94481.25;;;24.24;60.21
20105;BME280;10212;42.714;23.310;2022-08-21T13:20:44;94480.47;;;24.00;60.70
20105;BME280;10212;42.714;23.310;2022-08-21T13:25:44;94473.06;;;24.20;60.38
20105;BME280;10212;42.714;23.310;2022-08-21T13:30:48;94463.34;;;23.92;61.16
20105;BME280;10212;42.714;23.310;2022-08-21T13:36:03;94445.84;;;24.23;60.63
20105;BME280;10212;42.714;23.310;2022-08-21T13:46:18;94460.69;;;24.97;57.68
20105;BME280;10212;42.714;23.310;2022-08-21T13:51:24;94452.94;;;24.77;58.91
20105;BME280;10212;42.714;23.310;2022-08-21T14:01:36;94446.41;;;25.01;59.45
20105;BME280;10212;42.714;23.310;2022-08-21T14:06:41;94448.94;;;25.24;59.30
20105;BME280;10212;42.714;23.310;2022-08-21T14:11:44;94445.69;;;25.27;58.72
20105;BME280;10212;42.714;23.310;2022-08-21T14:16:52;94436.09;;;25.26;59.13
20105;BME280;10212;42.714;23.310;2022-08-21T14:21:53;94438.75;;;25.09;60.22
20105;BME280;10212;42.714;23.310;2022-08-21T14:27:03;94445.81;;;25.04;59.09
20105;BME280;10212;42.714;23.310;2022-08-21T14:32:25;94451.41;;;24.94;59.08
20105;BME280;10212;42.714;23.310;2022-08-21T14:37:29;94445.41;;;24.79;59.95
20105;BME280;10212;42.714;23.310;2022-08-21T14:42:34;94454.19;;;24.07;62.95
20105;BME280;10212;42.714;23.310;2022-08-21T14:47:35;94440.66;;;22.98;69.67
20105;BME280;10212;42.714;23.310;2022-08-21T14:52:38;94444.13;;;22.42;74.37
20105;BME280;10212;42.714;23.310;2022-08-21T14:57:46;94440.97;;;22.26;77.48
20105;BME280;10212;42.714;23.310;2022-08-21T15:02:50;94427.19;;;22.24;77.35
20105;BME280;10212;42.714;23.310;2022-08-21T15:07:53;94415.97;;;22.27;78.37
20105;BME280;10212;42.714;23.310;2022-08-21T15:12:53;94418.38;;;22.28;75.15
20105;BME280;10212;42.714;23.310;2022-08-21T15:17:56;94405.00;;;22.76;71.84
20105;BME280;10212;42.714;23.310;2022-08-21T15:22:57;94399.53;;;23.32;70.16
20105;BME280;10212;42.714;23.310;2022-08-21T15:28:04;94384.31;;;23.47;68.26
20105;BME280;10212;42.714;23.310;2022-08-21T15:33:07;94367.97;;;23.40;67.84
20105;BME280;10212;42.714;23.310;2022-08-21T15:38:10;94361.31;;;23.28;67.29
20105;BME280;10212;42.714;23.310;2022-08-21T15:43:23;94381.78;;;23.42;67.73
20105;BME280;10212;42.714;23.310;2022-08-21T15:48:27;94380.81;;;23.60;67.90
20105;BME280;10212;42.714;23.310;2022-08-21T15:53:30;94384.06;;;23.34;67.23
20105;BME280;10212;42.714;23.310;2022-08-21T15:58:37;94398.53;;;23.28;67.54
20105;BME280;10212;42.714;23.310;2022-08-21T16:03:47;94398.59;;;23.14;68.37
20105;BME280;10212;42.714;23.310;2022-08-21T16:08:51;94401.94;;;23.20;69.44
20105;BME280;10212;42.714;23.310;2022-08-21T16:13:51;94414.56;;;23.00;69.94
20105;BME280;10212;42.714;23.310;2022-08-21T16:18:52;94424.63;;;22.89;70.74
20105;BME280;10212;42.714;23.310;2022-08-21T16:23:53;94438.53;;;22.72;71.38
20105;BME280;10212;42.714;23.310;2022-08-21T16:28:55;94436.97;;;22.57;71.57
20105;BME280;10212;42.714;23.310;2022-08-21T16:33:59;94446.66;;;22.19;72.91
20105;BME280;10212;42.714;23.310;2022-08-21T16:44:02;94440.72;;;21.94;75.17
20105;BME280;10212;42.714;23.310;2022-08-21T16:49:04;94429.72;;;22.01;75.03
20105;BME280;10212;42.714;23.310;2022-08-21T16:54:05;94442.09;;;21.91;75.85
20105;BME280;10212;42.714;23.310;2022-08-21T16:59:05;94451.00;;;21.82;76.98
20105;BME280;10212;42.714;23.310;2022-08-21T17:04:08;94450.91;;;21.87;76.55
20105;BME280;10212;42.714;23.310;2022-08-21T17:09:08;94470.88;;;21.84;76.68
20105;BME280;10212;42.714;23.310;2022-08-21T17:14:15;94471.19;;;21.77;76.30
20105;BME280;10212;42.714;23.310;2022-08-21T17:19:18;94481.13;;;21.72;76.52
20105;BME280;10212;42.714;23.310;2022-08-21T17:24:19;94496.25;;;21.71;76.17
20105;BME280;10212;42.714;23.310;2022-08-21T17:29:24;94499.34;;;21.59;76.94
20105;BME280;10212;42.714;23.310;2022-08-21T17:34:26;94496.25;;;21.52;77.51
20105;BME280;10212;42.714;23.310;2022-08-21T17:39:27;94511.50;;;21.41;78.50
20105;BME280;10212;42.714;23.310;2022-08-21T17:44:29;94506.50;;;21.20;79.35
20105;BME280;10212;42.714;23.310;2022-08-21T17:49:32;94511.00;;;21.19;81.65
20105;BME280;10212;42.714;23.310;2022-08-21T17:54:35;94525.38;;;20.94;80.58
20105;BME280;10212;42.714;23.310;2022-08-21T17:59:37;94538.78;;;20.73;82.90
20105;BME280;10212;42.714;23.310;2022-08-21T18:04:41;94540.78;;;20.62;85.18
20105;BME280;10212;42.714;23.310;2022-08-21T18:09:44;94536.13;;;20.48;87.79
20105;BME280;10212;42.714;23.310;2022-08-21T18:14:45;94550.16;;;20.49;88.23
20105;BME280;10212;42.714;23.310;2022-08-21T18:19:45;94555.16;;;20.51;89.29
20105;BME280;10212;42.714;23.310;2022-08-21T18:24:46;94564.94;;;20.20;94.33
20105;BME280;10212;42.714;23.310;2022-08-21T18:29:48;94567.69;;;20.10;92.41
20105;BME280;10212;42.714;23.310;2022-08-21T18:34:53;94565.03;;;20.10;88.16
20105;BME280;10212;42.714;23.310;2022-08-21T18:39:54;94563.53;;;19.98;88.32
20105;BME280;10212;42.714;23.310;2022-08-21T18:45:00;94563.00;;;19.96;88.60
20105;BME280;10212;42.714;23.310;2022-08-21T18:50:04;94562.75;;;19.93;88.15
20105;BME280;10212;42.714;23.310;2022-08-21T18:55:06;94564.59;;;19.92;87.84
20105;BME280;10212;42.714;23.310;2022-08-21T19:00:10;94554.50;;;19.99;86.44
20105;BME280;10212;42.714;23.310;2022-08-21T19:05:15;94553.69;;;19.99;86.08
20105;BME280;10212;42.714;23.310;2022-08-21T19:10:18;94563.94;;;20.16;84.66
20105;BME280;10212;42.714;23.310;2022-08-21T19:15:21;94560.31;;;20.07;84.76
20105;BME280;10212;42.714;23.310;2022-08-21T19:20:29;94563.47;;;20.09;84.42
20105;BME280;10212;42.714;23.310;2022-08-21T19:25:32;94555.38;;;19.90;85.51
20105;BME280;10212;42.714;23.310;2022-08-21T19:30:33;94588.63;;;20.01;86.31
20105;BME280;10212;42.714;23.310;2022-08-21T19:35:34;94592.16;;;19.86;87.58
20105;BME280;10212;42.714;23.310;2022-08-21T19:40:37;94599.06;;;19.82;87.92
20105;BME280;10212;42.714;23.310;2022-08-21T19:45:38;94594.53;;;19.87;87.80
20105;BME280;10212;42.714;23.310;2022-08-21T19:50:39;94587.22;;;19.69;88.62
20105;BME280;10212;42.714;23.310;2022-08-21T19:55:43;94595.16;;;19.69;88.44
20105;BME280;10212;42.714;23.310;2022-08-21T20:00:47;94602.41;;;19.52;89.41
20105;BME280;10212;42.714;23.310;2022-08-21T20:05:49;94591.81;;;19.52;89.82
20105;BME280;10212;42.714;23.310;2022-08-21T20:10:52;94590.69;;;19.64;89.52
20105;BME280;10212;42.714;23.310;2022-08-21T20:15:56;94593.94;;;19.50;90.82
20105;BME280;10212;42.714;23.310;2022-08-21T20:20:59;94587.84;;;19.55;90.35
20105;BME280;10212;42.714;23.310;2022-08-21T20:26:01;94590.25;;;19.46;92.44
20105;BME280;10212;42.714;23.310;2022-08-21T20:31:04;94589.44;;;19.56;91.59
20105;BME280;10212;42.714;23.310;2022-08-21T20:36:05;94586.56;;;19.47;92.61
20105;BME280;10212;42.714;23.310;2022-08-21T20:41:06;94597.44;;;19.30;94.52
20105;BME280;10212;42.714;23.310;2022-08-21T20:46:09;94606.22;;;19.25;93.48
20105;BME280;10212;42.714;23.310;2022-08-21T20:51:15;94608.31;;;19.28;94.22
20105;BME280;10212;42.714;23.310;2022-08-21T20:56:54;94603.31;;;19.22;94.73
20105;BME280;10212;42.714;23.310;2022-08-21T21:12:59;94610.22;;;18.91;92.24
20105;BME280;10212;42.714;23.310;2022-08-21T21:18:09;94609.41;;;18.96;91.73
20105;BME280;10212;42.714;23.310;2022-08-21T21:23:17;94607.84;;;18.95;89.90
20105;BME280;10212;42.714;23.310;2022-08-21T21:28:24;94614.22;;;18.89;89.23
20105;BME280;10212;42.714;23.310;2022-08-21T21:33:26;94609.47;;;18.75;89.52
20105;BME280;10212;42.714;23.310;2022-08-21T21:38:36;94612.91;;;18.81;89.50
20105;BME280;10212;42.714;23.310;2022-08-21T21:49:22;94594.69;;;18.79;89.04
20105;BME280;10212;42.714;23.310;2022-08-21T22:00:16;94610.56;;;18.48;91.58
20105;BME280;10212;42.714;23.310;2022-08-21T22:15:51;94602.59;;;18.12;94.12
20105;BME280;10212;42.714;23.310;2022-08-21T22:21:01;94607.34;;;18.04;94.31
20105;BME280;10212;42.714;23.310;2022-08-21T22:26:07;94604.75;;;18.20;93.49
20105;BME280;10212;42.714;23.310;2022-08-21T22:31:24;94598.38;;;18.05;94.02
20105;BME280;10212;42.714;23.310;2022-08-21T22:36:29;94601.28;;;17.99;94.46
20105;BME280;10212;42.714;23.310;2022-08-21T22:41:37;94598.88;;;17.92;95.49
20105;BME280;10212;42.714;23.310;2022-08-21T22:46:50;94586.22;;;18.04;94.05
20105;BME280;10212;42.714;23.310;2022-08-21T22:51:56;94591.00;;;18.02;95.72
20105;BME280;10212;42.714;23.310;2022-08-21T22:57:19;94591.81;;;18.18;93.98
20105;BME280;10212;42.714;23.310;2022-08-21T23:02:37;94592.59;;;18.14;94.56
20105;BME280;10212;42.714;23.310;2022-08-21T23:07:41;94595.78;;;18.16;94.11
20105;BME280;10212;42.714;23.310;2022-08-21T23:12:47;94592.84;;;17.96;94.95
20105;BME280;10212;42.714;23.310;2022-08-21T23:23:29;94595.19;;;17.93;95.19
20105;BME280;10212;42.714;23.310;2022-08-21T23:28:39;94605.75;;;17.93;95.26
20105;BME280;10212;42.714;23.310;2022-08-21T23:39:24;94609.66;;;17.69;96.42
20105;BME280;10212;42.714;23.310;2022-08-21T23:50:21;94600.94;;;17.74;94.97
